Time;durP1;ratioP1;P1;durP2;ratioP2;P2;SDS_P1;SDS_P2;PMS_P1;PMS_P2;Temp;Humidity;BMP_temperature;BMP_pressure;BME280_temperature;BME280_humidity;BME280_pressure;Samples;Min_cycle;Max_cycle;Signal;HPM_P1;HPM_P2
2022/08/09 00:00:54;;;;;;;4.68;4.18;;;;;;;23.06;46.06;94103.78;6032463;23;20021;-92
2022/08/09 00:03:19;;;;;;;4.88;3.83;;;;;;;23.06;45.89;94106.53;5986556;23;20536;-92
2022/08/09 00:05:44;;;;;;;4.50;3.42;;;;;;;23.05;45.97;94102.31;6034249;23;20025;-92
2022/08/09 00:08:10;;;;;;;4.60;3.47;;;;;;;23.05;46.01;94102.31;5988699;23;20030;-91
2022/08/09 00:10:36;;;;;;;4.90;3.58;;;;;;;23.05;46.04;94111.31;6012142;23;20015;-91
2022/08/09 00:13:05;;;;;;;6.70;3.65;;;;;;;23.05;45.94;94102.31;5986406;23;20020;-91
2022/08/09 00:15:31;;;;;;;4.18;3.30;;;;;;;23.06;45.94;94101.78;5987367;23;20019;-92
2022/08/09 00:17:56;;;;;;;3.63;3.22;;;;;;;23.07;46.00;94103.25;6012325;23;20019;-93
2022/08/09 00:20:22;;;;;;;3.97;3.53;;;;;;;23.05;46.04;94105.81;6037606;23;20526;-93
2022/08/09 00:22:48;;;;;;;5.03;4.05;;;;;;;23.06;45.90;94104.53;6034012;23;20019;-92
2022/08/09 00:25:14;;;;;;;4.70;3.70;;;;;;;23.04;45.94;94107.06;6032489;23;20097;-92
2022/08/09 00:27:39;;;;;;;4.15;3.70;;;;;;;23.06;45.80;94109.31;6034829;23;20062;-92
2022/08/09 00:30:05;;;;;;;4.22;3.67;;;;;;;23.04;45.90;94114.59;6046371;23;20018;-92
2022/08/09 00:32:31;;;;;;;4.07;3.55;;;;;;;23.05;45.74;94105.06;6045949;23;20564;-92
2022/08/09 00:34:56;;;;;;;5.78;3.85;;;;;;;23.04;45.78;94109.81;6068329;23;20041;-92
2022/08/09 00:37:22;;;;;;;4.97;3.28;;;;;;;23.06;45.82;94109.31;6069539;23;20019;-91
2022/08/09 00:39:47;;;;;;;4.50;3.35;;;;;;;23.04;45.78;94109.81;6072202;23;20041;-91
2022/08/09 00:42:13;;;;;;;5.15;3.33;;;;;;;23.03;46.02;94102.81;6071218;23;20410;-92
2022/08/09 00:44:39;;;;;;;3.50;3.20;;;;;;;23.02;46.15;94117.88;6072196;23;20023;-92
2022/08/09 00:47:05;;;;;;;4.82;3.55;;;;;;;23.03;45.77;94107.59;6071822;23;20033;-92
2022/08/09 00:49:30;;;;;;;4.47;3.33;;;;;;;23.04;45.92;94103.56;6068034;23;20470;-92
2022/08/09 00:51:56;;;;;;;3.95;3.20;;;;;;;23.04;45.94;94111.84;6070301;23;20007;-93
2022/08/09 00:54:22;;;;;;;2.78;2.58;;;;;;;23.04;45.61;94106.31;6069666;23;20402;-92
2022/08/09 00:56:47;;;;;;;4.82;3.30;;;;;;;23.03;46.01;94107.59;6065511;23;20030;-93
2022/08/09 00:59:14;;;;;;;4.78;3.00;;;;;;;23.02;46.04;94106.84;6069045;23;20029;-92
2022/08/09 01:01:40;;;;;;;4.97;3.60;;;;;;;23.02;45.87;94106.09;6070433;23;20022;-92
2022/08/09 01:04:12;;;;;;;3.33;3.00;;;;;;;23.04;45.83;94101.56;6069540;23;20279;-92
2022/08/09 01:06:45;;;;;;;3.58;3.28;;;;;;;23.02;46.02;94112.38;6072467;23;20018;-93
2022/08/09 01:09:36;;;;;;;3.50;2.95;;;;;;;23.01;46.00;94105.34;6095353;23;20053;-92
2022/08/09 01:12:17;;;;;;;4.05;3.28;;;;;;;23.02;46.08;94109.59;6059113;23;20025;-93
2022/08/09 01:14:57;;;;;;;3.33;2.90;;;;;;;23.01;46.18;94101.84;6090540;23;20014;-92
2022/08/09 01:17:25;;;;;;;3.85;3.13;;;;;;;23.01;45.77;94108.13;6071100;23;20484;-91
2022/08/09 01:20:02;;;;;;;4.03;2.88;;;;;;;23.00;45.80;94112.13;6070710;23;20509;-92
2022/08/09 01:22:46;;;;;;;4.10;3.25;;;;;;;23.02;45.91;94106.09;6046067;23;20017;-92
2022/08/09 01:25:23;;;;;;;3.22;2.78;;;;;;;23.02;45.95;94117.13;6088919;23;20521;-92
2022/08/09 01:27:51;;;;;;;5.20;3.38;;;;;;;23.00;46.12;94112.13;6068542;23;20110;-92
2022/08/09 01:30:17;;;;;;;3.85;2.80;;;;;;;23.00;45.90;94112.13;6070162;23;20019;-92
2022/08/09 01:32:44;;;;;;;4.43;3.05;;;;;;;23.00;45.87;94103.88;6065528;23;20029;-91
2022/08/09 01:35:13;;;;;;;3.88;3.00;;;;;;;23.00;45.89;94109.38;6069695;23;20025;-92
2022/08/09 01:37:38;;;;;;;4.43;2.83;;;;;;;23.00;45.83;94114.16;6092089;23;20098;-92
2022/08/09 01:40:04;;;;;;;2.97;2.65;;;;;;;22.99;45.85;94107.88;6066572;23;20023;-92
2022/08/09 01:42:30;;;;;;;4.13;3.05;;;;;;;22.98;45.86;94109.16;6045290;23;20029;-92
2022/08/09 01:44:55;;;;;;;2.88;2.58;;;;;;;23.00;45.65;94103.88;6066841;23;20021;-92
2022/08/09 01:47:21;;;;;;;4.07;2.65;;;;;;;22.98;45.85;94106.41;6045686;23;20069;-92
2022/08/09 01:49:46;;;;;;;3.60;2.55;;;;;;;22.99;45.67;94104.38;6061585;23;20018;-92
2022/08/09 01:52:12;;;;;;;3.25;2.90;;;;;;;23.00;45.73;94103.13;6068596;23;20446;-92
2022/08/09 01:54:39;;;;;;;2.50;2.30;;;;;;;22.99;46.05;94107.88;6066033;23;20037;-92
2022/08/09 01:57:16;;;;;;;2.80;2.40;;;;;;;22.98;45.91;94109.16;6042363;23;20022;-92
2022/08/09 01:59:45;;;;;;;3.63;2.70;;;;;;;22.98;46.10;94113.94;6066581;23;20029;-91
2022/08/09 02:02:10;;;;;;;3.20;2.53;;;;;;;22.98;45.94;94106.41;6065548;23;20451;-91
2022/08/09 02:04:36;;;;;;;2.72;2.20;;;;;;;22.99;45.82;94118.19;6068929;23;20047;-92
2022/08/09 02:07:08;;;;;;;3.58;2.92;;;;;;;22.98;45.82;94108.41;6067077;23;20035;-93
2022/08/09 02:09:42;;;;;;;2.97;2.67;;;;;;;22.98;45.79;94111.91;6069853;23;20097;-92
2022/08/09 02:12:08;;;;;;;3.92;2.38;;;;;;;22.97;46.18;94102.16;6065338;23;20390;-91
2022/08/09 02:14:34;;;;;;;3.40;2.45;;;;;;;22.99;45.84;94113.41;6090872;23;20416;-91
2022/08/09 02:17:01;;;;;;;2.97;2.60;;;;;;;22.98;45.89;94108.41;6068699;23;20022;-92
2022/08/09 02:19:27;;;;;;;2.75;2.50;;;;;;;22.97;46.02;94106.94;6070744;23;20017;-92
2022/08/09 02:21:55;;;;;;;2.45;2.10;;;;;;;22.96;45.83;94110.94;6063689;23;20018;-92
2022/08/09 02:24:23;;;;;;;3.47;2.40;;;;;;;22.97;45.77;94110.44;6068232;23;20014;-91
2022/08/09 02:26:52;;;;;;;2.28;2.08;;;;;;;22.97;45.69;94106.94;6063068;23;20018;-91
2022/08/09 02:29:20;;;;;;;2.72;2.30;;;;;;;22.96;45.95;94114.44;6045492;23;20089;-92
2022/08/09 02:31:46;;;;;;;3.47;2.80;;;;;;;22.97;45.86;94115.94;6067710;23;20061;-92
2022/08/09 02:34:15;;;;;;;2.67;2.40;;;;;;;22.96;45.71;94117.22;6069779;23;20358;-91
2022/08/09 02:36:41;;;;;;;2.15;1.95;;;;;;;22.98;45.97;94116.69;6068503;23;20109;-91
2022/08/09 02:39:11;;;;;;;3.13;2.42;;;;;;;22.97;45.87;94120.72;6066349;23;20018;-92
2022/08/09 02:41:45;;;;;;;3.08;2.78;;;;;;;22.96;46.00;94114.44;6071968;23;20052;-92
2022/08/09 02:44:14;;;;;;;2.38;2.15;;;;;;;22.97;45.79;94109.69;6092663;23;20045;-92
2022/08/09 02:46:40;;;;;;;5.28;2.72;;;;;;;22.95;45.58;94118.47;6062127;23;20033;-92
2022/08/09 02:49:07;;;;;;;2.75;2.13;;;;;;;22.96;45.73;94113.72;6067464;23;20022;-91
2022/08/09 02:51:35;;;;;;;2.97;2.30;;;;;;;22.95;45.75;94115.72;6089027;23;20019;-92
2022/08/09 02:54:01;;;;;;;3.17;1.92;;;;;;;22.95;45.83;94118.47;6069718;23;20021;-91
2022/08/09 02:56:26;;;;;;;2.30;2.10;;;;;;;22.96;45.98;94106.19;6069252;23;20018;-91
2022/08/09 02:58:52;;;;;;;2.80;2.40;;;;;;;22.97;45.71;94112.44;6066687;23;20061;-92
2022/08/09 03:01:17;;;;;;;3.22;2.15;;;;;;;22.96;45.70;94108.94;6068048;23;20014;-91
2022/08/09 03:03:43;;;;;;;3.05;2.08;;;;;;;22.94;45.94;94105.25;6065066;23;20453;-91
2022/08/09 03:06:13;;;;;;;1.92;1.80;;;;;;;22.96;45.89;94102.69;6113221;23;20015;-92
2022/08/09 03:08:39;;;;;;;4.65;1.98;;;;;;;22.96;45.77;94099.91;6045526;23;20517;-92
2022/08/09 03:11:05;;;;;;;3.13;2.42;;;;;;;22.94;45.88;94100.47;6067478;23;20346;-92
2022/08/09 03:13:31;;;;;;;3.58;2.55;;;;;;;22.94;45.72;94100.47;6067224;23;20465;-92
2022/08/09 03:15:56;;;;;;;2.78;2.13;;;;;;;22.95;45.74;94098.47;6071203;23;20346;-93
2022/08/09 03:18:22;;;;;;;2.70;2.13;;;;;;;22.95;45.64;94103.97;6073367;23;20010;-92
2022/08/09 03:20:47;;;;;;;2.67;2.10;;;;;;;22.95;45.81;94101.94;6068554;23;20402;-91
2022/08/09 03:23:13;;;;;;;2.35;1.92;;;;;;;22.93;46.01;94101.00;6069753;23;20018;-91
2022/08/09 03:25:40;;;;;;;3.13;1.98;;;;;;;22.94;45.64;94105.97;6071731;23;20018;-92
2022/08/09 03:28:05;;;;;;;4.03;2.28;;;;;;;22.94;45.68;94102.47;6071375;23;20093;-92
2022/08/09 03:30:31;;;;;;;2.72;2.05;;;;;;;22.94;45.93;94096.97;6093655;23;20018;-90
2022/08/09 03:32:58;;;;;;;4.15;2.25;;;;;;;22.92;45.76;94097.50;6070161;23;20038;-91
2022/08/09 03:35:24;;;;;;;3.17;2.10;;;;;;;22.94;45.63;94102.47;6025794;23;20016;-90
2022/08/09 03:37:50;;;;;;;2.90;2.08;;;;;;;22.95;45.83;94098.47;6071218;23;20105;-92
2022/08/09 03:40:25;;;;;;;2.58;1.77;;;;;;;22.93;45.67;94098.22;6102223;23;20473;-93
2022/08/09 03:42:51;;;;;;;11.80;2.25;;;;;;;22.98;45.61;94098.13;6084491;23;20019;-93
2022/08/09 03:45:17;;;;;;;2.30;1.88;;;;;;;22.97;45.43;94109.69;6056845;23;20006;-92
2022/08/09 03:47:44;;;;;;;2.70;1.90;;;;;;;22.94;45.69;94105.97;6075441;23;20018;-92
2022/08/09 03:52:37;;;;;;;3.50;2.45;;;;;;;22.95;45.78;94106.72;6165522;23;20028;-91
2022/08/09 03:55:07;;;;;;;2.92;1.95;;;;;;;22.97;45.75;94110.44;6088159;23;20045;-92
2022/08/09 03:57:39;;;;;;;3.13;2.00;;;;;;;22.99;45.84;94121.69;6134810;23;20018;-92
2022/08/09 04:00:05;;;;;;;3.33;1.42;;;;;;;22.97;45.63;94117.94;6102509;23;20086;-92
2022/08/09 04:02:30;;;;;;;2.78;2.03;;;;;;;22.93;44.39;94117.53;6078839;23;20081;-91
2022/08/09 04:04:59;;;;;;;26.10;4.00;;;;;;;22.89;41.66;94113.06;6081193;23;20018;-90
2022/08/09 04:07:27;;;;;;;7.28;2.70;;;;;;;22.53;40.09;94117.28;6116095;23;20029;-91
2022/08/09 04:10:01;;;;;;;4.85;2.60;;;;;;;22.30;40.09;94111.31;6102253;23;19993;-89
2022/08/09 04:15:27;;;;;;;4.00;2.50;;;;;;;21.92;40.28;94117.97;6117877;23;20002;-90
2022/08/09 04:17:53;;;;;;;7.10;3.47;;;;;;;21.87;40.28;94114.03;6118215;23;20035;-91
2022/08/09 04:20:24;;;;;;;12.82;4.68;;;;;;;22.02;40.22;94117.16;6144696;23;20040;-90
2022/08/09 04:22:52;;;;;;;7.07;4.40;;;;;;;22.14;39.92;94115.75;6141529;23;20013;-89
2022/08/09 04:25:18;;;;;;;12.95;4.97;;;;;;;22.10;39.87;94123.56;6154651;23;20013;-90
2022/08/09 04:27:44;;;;;;;12.50;7.20;;;;;;;22.08;40.25;94120.59;6108118;23;20326;-90
2022/08/09 04:30:11;;;;;;;9.95;6.13;;;;;;;22.07;40.66;94121.13;6106422;23;20017;-91
2022/08/09 04:32:38;;;;;;;8.07;5.13;;;;;;;22.16;40.77;94107.72;6106810;23;20048;-93
2022/08/09 04:35:05;;;;;;;17.67;13.68;;;;;;;22.20;41.00;94097.16;6102961;23;20040;-91
2022/08/09 04:37:31;;;;;;;68.60;36.05;;;;;;;22.29;40.62;94109.09;6101767;23;20013;-92
2022/08/09 04:39:59;;;;;;;90.30;43.17;;;;;;;22.23;40.44;94115.41;6101498;23;20021;-91
2022/08/09 04:42:28;;;;;;;125.05;63.85;;;;;;;22.24;40.36;94107.91;6105651;23;20028;-90
2022/08/09 04:44:55;;;;;;;237.85;98.82;;;;;;;22.33;40.07;94109.53;6106884;23;20024;-90
2022/08/09 04:47:21;;;;;;;108.60;51.45;;;;;;;22.23;40.42;94101.63;6123466;23;20087;-90
2022/08/09 04:49:46;;;;;;;97.05;43.13;;;;;;;22.20;40.42;94112.94;6103622;23;20047;-92
2022/08/09 04:52:12;;;;;;;95.88;41.50;;;;;;;22.32;40.31;94110.78;6129211;23;20013;-92
2022/08/09 04:54:37;;;;;;;66.53;35.22;;;;;;;22.31;40.20;94112.78;6107938;23;20017;-90
2022/08/09 04:57:09;;;;;;;52.65;29.67;;;;;;;22.35;40.36;94112.50;6108596;23;20088;-90
2022/08/09 04:59:36;;;;;;;55.88;27.77;;;;;;;22.27;40.48;94109.63;6130895;23;20479;-90
2022/08/09 05:02:02;;;;;;;47.63;25.92;;;;;;;22.26;40.49;94112.88;6102082;23;20040;-91
2022/08/09 05:04:27;;;;;;;25.75;10.05;;;;;;;22.03;40.77;94115.16;6133504;23;20041;-93
2022/08/09 05:06:53;;;;;;;20.33;7.25;;;;;;;21.83;40.93;94116.34;6107213;23;20391;-91
2022/08/09 05:09:20;;;;;;;21.95;5.97;;;;;;;21.72;41.37;94121.94;6107999;23;20013;-91
2022/08/09 05:11:47;;;;;;;11.85;4.13;;;;;;;21.62;41.66;94123.56;6106896;23;20364;-89
2022/08/09 05:14:13;;;;;;;10.55;3.80;;;;;;;21.41;41.86;94131.50;6140206;23;20013;-88
2022/08/09 05:16:40;;;;;;;43.90;17.30;;;;;;;21.26;42.27;94137.34;6154131;23;20021;-91
2022/08/09 05:19:05;;;;;;;67.50;30.20;;;;;;;21.22;42.49;94136.88;6126519;23;20345;-89
2022/08/09 05:21:31;;;;;;;39.67;17.60;;;;;;;21.10;42.84;94132.69;6105340;23;20344;-90
2022/08/09 05:23:57;;;;;;;27.23;16.98;;;;;;;21.07;42.67;94142.72;6100556;23;20025;-89
2022/08/09 05:26:22;;;;;;;37.10;15.98;;;;;;;21.08;43.09;94151.72;6095247;23;20079;-92
2022/08/09 05:28:48;;;;;;;20.88;10.82;;;;;;;21.02;43.18;94140.75;6105563;23;20028;-91
2022/08/09 05:31:14;;;;;;;18.08;10.05;;;;;;;21.05;43.33;94147.97;6129249;23;20020;-92
2022/08/09 05:33:40;;;;;;;20.20;9.60;;;;;;;21.17;43.19;94148.66;6132987;23;20025;-92
2022/08/09 05:36:06;;;;;;;12.23;6.88;;;;;;;21.09;43.69;94144.97;6128246;23;20021;-93
2022/08/09 05:38:32;;;;;;;12.95;5.63;;;;;;;21.13;43.69;94146.19;6136162;23;20137;-90
2022/08/09 05:40:59;;;;;;;9.77;4.35;;;;;;;21.09;43.74;94153.94;6137152;23;20084;-92
2022/08/09 05:43:25;;;;;;;10.98;4.63;;;;;;;21.08;43.75;94146.97;6116469;23;20017;-93
2022/08/09 05:46:01;;;;;;;15.18;6.13;;;;;;;21.23;43.54;94154.13;6116132;23;20008;-94
2022/08/09 05:48:27;;;;;;;25.20;6.40;;;;;;;21.42;43.37;94149.50;6136210;23;20464;-93
2022/08/09 05:50:54;;;;;;;14.25;7.68;;;;;;;21.38;43.30;94160.03;6129560;23;20024;-91
2022/08/09 05:53:20;;;;;;;13.25;7.68;;;;;;;21.50;43.02;94148.41;6119188;23;20014;-91
2022/08/09 05:55:45;;;;;;;16.83;6.88;;;;;;;21.54;42.89;94156.38;6095418;23;20031;-91
2022/08/09 05:58:13;;;;;;;15.75;7.53;;;;;;;21.64;42.71;94156.81;6155961;23;20471;-91
2022/08/09 06:00:38;;;;;;;26.30;7.93;;;;;;;21.72;42.90;94154.97;6146545;23;20568;-91
2022/08/09 06:03:04;;;;;;;20.90;7.78;;;;;;;21.72;42.98;94163.97;6105648;23;20049;-92
2022/08/09 06:05:31;;;;;;;34.72;10.98;;;;;;;21.82;42.43;94167.88;6131487;23;20020;-92
2022/08/09 06:08:01;;;;;;;27.67;8.52;;;;;;;21.86;42.64;94162.09;6132461;23;20020;-92
2022/08/09 06:10:37;;;;;;;22.37;9.57;;;;;;;21.91;42.81;94166.78;6151886;23;20013;-92
2022/08/09 06:13:12;;;;;;;20.00;10.55;;;;;;;22.02;42.40;94166.72;6110058;23;20025;-92
2022/08/09 06:15:38;;;;;;;20.70;10.15;;;;;;;22.05;42.32;94168.44;6105579;23;20080;-93
2022/08/09 06:18:03;;;;;;;25.67;11.63;;;;;;;22.13;42.59;94169.34;6097678;23;20042;-89
2022/08/09 06:20:29;;;;;;;17.02;9.30;;;;;;;22.12;42.57;94173.34;6123679;23;20016;-90
2022/08/09 06:22:54;;;;;;;17.20;8.63;;;;;;;22.10;42.29;94162.09;6100327;23;20044;-90
2022/08/09 06:25:20;;;;;;;12.45;7.30;;;;;;;22.12;42.76;94176.09;6105487;23;20025;-91
2022/08/09 06:27:46;;;;;;;10.40;7.15;;;;;;;22.15;42.62;94168.81;6102995;23;20020;-89
2022/08/09 06:30:12;;;;;;;11.07;6.30;;;;;;;22.18;42.91;94168.53;6077759;23;20017;-91
2022/08/09 06:32:38;;;;;;;13.52;5.63;;;;;;;22.25;42.78;94183.75;6102738;23;20021;-91
2022/08/09 06:35:05;;;;;;;11.05;5.57;;;;;;;22.26;42.66;94176.97;6080917;23;20026;-92
2022/08/09 06:37:30;;;;;;;9.77;5.25;;;;;;;22.23;42.64;94176.00;6078563;23;20022;-91
2022/08/09 06:39:56;;;;;;;9.07;5.85;;;;;;;22.30;42.51;94177.41;6074698;23;20029;-89
2022/08/09 06:42:21;;;;;;;9.38;5.53;;;;;;;22.28;42.52;94179.22;6118799;23;20024;-88
2022/08/09 06:44:47;;;;;;;13.50;6.50;;;;;;;22.28;42.52;94177.22;6100517;23;20026;-90
2022/08/09 06:47:13;;;;;;;7.97;4.90;;;;;;;22.26;42.76;94181.75;6077550;23;20048;-88
2022/08/09 06:49:38;;;;;;;10.32;5.47;;;;;;;22.25;42.82;94183.75;6089598;23;20585;-89
2022/08/09 06:52:05;;;;;;;8.05;4.68;;;;;;;22.22;43.05;94180.03;6099337;23;20021;-89
2022/08/09 06:54:30;;;;;;;9.32;5.00;;;;;;;22.28;42.84;94182.72;6099778;23;20028;-88
2022/08/09 06:56:56;;;;;;;16.10;6.20;;;;;;;22.32;42.30;94190.66;6078690;23;20025;-90
2022/08/09 06:59:23;;;;;;;16.40;5.88;;;;;;;22.30;41.98;94191.19;6093701;23;20100;-90
2022/08/09 07:01:48;;;;;;;16.83;5.25;;;;;;;22.32;41.91;94193.44;6077936;23;20013;-89
2022/08/09 07:04:14;;;;;;;15.35;5.70;;;;;;;22.29;42.00;94188.97;6074387;23;20052;-88
2022/08/09 07:06:39;;;;;;;68.60;34.63;;;;;;;22.14;42.37;94189.38;6074862;23;20073;-88
2022/08/09 07:09:05;;;;;;;134.38;61.85;;;;;;;22.19;42.33;94185.81;6118004;23;20018;-88
2022/08/09 07:11:30;;;;;;;117.80;55.83;;;;;;;22.15;42.77;94183.34;6073473;23;20017;-89
2022/08/09 07:13:56;;;;;;;120.07;59.15;;;;;;;22.26;42.60;94195.50;6098181;23;20028;-91
2022/08/09 07:16:23;;;;;;;100.25;51.03;;;;;;;22.20;42.73;94190.81;6078911;23;20014;-93
2022/08/09 07:18:49;;;;;;;113.60;54.17;;;;;;;22.22;42.74;94187.53;6093236;23;20475;-90
2022/08/09 07:21:14;;;;;;;126.35;61.17;;;;;;;22.35;42.39;94193.13;6103573;23;20013;-92
2022/08/09 07:23:40;;;;;;;125.65;67.75;;;;;;;22.29;42.74;94197.25;6147567;23;20434;-90
2022/08/09 07:26:06;;;;;;;112.95;52.58;;;;;;;22.26;42.84;94193.50;6129582;23;20021;-90
2022/08/09 07:28:31;;;;;;;105.13;56.00;;;;;;;22.35;42.76;94195.91;6128037;23;20017;-89
2022/08/09 07:30:57;;;;;;;109.82;50.92;;;;;;;22.30;42.95;94207.00;6106823;23;20011;-91
2022/08/09 07:33:22;;;;;;;95.55;45.83;;;;;;;22.34;42.83;94201.91;6097022;23;20075;-91
2022/08/09 07:35:49;;;;;;;87.93;45.13;;;;;;;22.28;42.62;94202.00;6128693;23;20020;-90
2022/08/09 07:38:14;;;;;;;119.70;58.55;;;;;;;22.35;42.61;94197.91;6106365;23;20017;-91
2022/08/09 07:40:40;;;;;;;106.95;55.13;;;;;;;22.35;42.54;94206.91;6104745;23;20343;-92
2022/08/09 07:43:07;;;;;;;137.45;70.13;;;;;;;22.32;42.44;94212.72;6106567;23;20012;-91
2022/08/09 07:45:32;;;;;;;145.07;73.47;;;;;;;22.38;42.44;94218.91;6105421;23;20070;-91
2022/08/09 07:47:58;;;;;;;137.52;75.00;;;;;;;22.38;42.60;94219.66;6127259;23;20017;-90
2022/08/09 07:50:24;;;;;;;125.63;67.93;;;;;;;22.42;42.82;94230.41;6127415;23;20462;-91
2022/08/09 07:52:50;;;;;;;120.38;63.20;;;;;;;22.44;42.96;94219.59;6103379;23;20017;-91
2022/08/09 07:55:16;;;;;;;71.13;39.38;;;;;;;22.49;42.27;94230.56;6106979;23;20148;-89
2022/08/09 07:57:41;;;;;;;57.28;27.90;;;;;;;22.45;42.18;94221.84;6124623;23;20021;-89
2022/08/09 08:00:08;;;;;;;70.43;30.73;;;;;;;22.32;42.22;94226.47;6131924;23;20017;-89
2022/08/09 08:02:34;;;;;;;79.57;30.63;;;;;;;22.38;41.53;94230.69;6132074;23;20076;-90
2022/08/09 08:04:59;;;;;;;91.13;48.28;;;;;;;22.32;41.51;94229.97;6106124;23;20024;-91
2022/08/09 08:07:25;;;;;;;81.88;44.28;;;;;;;22.28;40.79;94231.56;6129509;23;20120;-89
2022/08/09 08:09:51;;;;;;;75.43;39.63;;;;;;;22.37;40.99;94220.91;6131507;23;20029;-89
2022/08/09 08:12:18;;;;;;;53.83;27.50;;;;;;;22.32;41.46;94226.47;6106047;23;20013;-88
2022/08/09 08:14:44;;;;;;;57.72;26.55;;;;;;;22.38;41.38;94232.69;6125113;23;20021;-88
2022/08/09 08:17:11;;;;;;;40.65;22.13;;;;;;;22.28;41.95;94223.28;6105044;23;20024;-89
2022/08/09 08:19:36;;;;;;;41.95;21.27;;;;;;;22.26;42.03;94232.06;6107852;23;20027;-90
2022/08/09 08:22:03;;;;;;;91.78;26.38;;;;;;;22.29;41.76;94225.53;6108457;23;20017;-93
2022/08/09 08:24:28;;;;;;;57.15;20.60;;;;;;;22.31;41.77;94225.72;6098294;23;20402;-87
2022/08/09 08:26:54;;;;;;;94.40;22.95;;;;;;;22.37;42.01;94223.66;6105768;23;20048;-88
2022/08/09 08:29:20;;;;;;;123.65;26.65;;;;;;;22.41;41.83;94229.66;6105716;23;20017;-90
2022/08/09 08:31:46;;;;;;;156.20;27.85;;;;;;;22.38;42.26;94232.69;6102904;23;20053;-90
2022/08/09 08:34:11;;;;;;;151.32;26.40;;;;;;;22.42;42.02;94224.88;6131980;23;20031;-89
2022/08/09 08:36:37;;;;;;;133.55;21.73;;;;;;;22.32;41.94;94235.50;6130435;23;20052;-88
2022/08/09 08:39:03;;;;;;;127.65;22.17;;;;;;;22.36;41.60;94221.44;6103925;23;20016;-89
2022/08/09 08:41:29;;;;;;;113.70;22.00;;;;;;;22.33;41.78;94225.22;6126966;23;20355;-88
2022/08/09 08:43:55;;;;;;;149.23;30.88;;;;;;;22.31;41.70;94224.97;6104770;23;20455;-88
2022/08/09 08:46:20;;;;;;;130.00;30.00;;;;;;;22.32;41.78;94224.47;6104018;23;20763;-87
2022/08/09 08:48:46;;;;;;;123.20;30.33;;;;;;;22.34;41.63;94230.22;6130833;23;20420;-88
2022/08/09 08:51:12;;;;;;;100.38;27.17;;;;;;;22.33;41.52;94230.72;6103114;23;20047;-90
2022/08/09 08:53:38;;;;;;;94.13;26.05;;;;;;;22.36;41.55;94221.44;6104394;23;20408;-89
2022/08/09 08:56:04;;;;;;;74.60;20.55;;;;;;;22.36;41.60;94232.44;6106908;23;20357;-89
2022/08/09 08:58:31;;;;;;;71.13;17.88;;;;;;;22.41;41.29;94223.38;6110418;23;20020;-90
2022/08/09 09:00:57;;;;;;;64.55;18.17;;;;;;;22.39;41.35;94220.41;6108437;23;19997;-91
2022/08/09 09:03:22;;;;;;;46.85;16.23;;;;;;;22.38;41.38;94224.41;6124647;23;20024;-90
2022/08/09 09:05:47;;;;;;;52.63;14.93;;;;;;;22.40;41.23;94213.63;6130293;23;20025;-91
2022/08/09 09:08:13;;;;;;;39.65;13.57;;;;;;;22.45;41.17;94221.84;6131348;23;20452;-92
2022/08/09 09:10:41;;;;;;;39.45;12.65;;;;;;;22.46;40.89;94214.31;6103790;23;20048;-90
2022/08/09 09:13:06;;;;;;;31.67;10.38;;;;;;;22.42;40.71;94222.88;6105228;23;20017;-92
2022/08/09 09:15:32;;;;;;;33.85;10.73;;;;;;;22.41;40.89;94215.88;6106754;23;20036;-93
2022/08/09 09:17:57;;;;;;;28.92;9.77;;;;;;;22.43;41.13;94224.38;6134594;23;20029;-91
2022/08/09 09:20:22;;;;;;;21.20;8.93;;;;;;;22.43;40.57;94210.59;6108657;23;20066;-93
2022/08/09 09:22:55;;;;;;;22.30;9.18;;;;;;;22.40;40.41;94219.88;6134260;23;20033;-93
2022/08/09 09:25:31;;;;;;;27.17;8.30;;;;;;;22.44;40.42;94220.34;6133753;23;20041;-92
2022/08/09 09:27:58;;;;;;;16.02;7.40;;;;;;;22.44;40.58;94217.59;6155165;23;20021;-90
2022/08/09 09:30:23;;;;;;;15.77;7.20;;;;;;;22.47;40.35;94218.56;6103271;23;20051;-89
2022/08/09 09:33:09;;;;;;;16.33;6.28;;;;;;;22.51;40.17;94219.03;6102493;23;20024;-92
2022/08/09 09:35:56;;;;;;;17.70;7.38;;;;;;;22.50;40.17;94212.03;6091141;23;20037;-90
2022/08/09 09:38:35;;;;;;;12.57;6.63;;;;;;;22.48;40.37;94214.56;6106670;23;20400;-91
2022/08/09 09:41:02;;;;;;;11.63;6.93;;;;;;;22.48;40.35;94220.81;6121091;23;20021;-93
2022/08/09 09:43:29;;;;;;;18.85;7.45;;;;;;;22.48;40.45;94206.28;6110711;23;20016;-91
2022/08/09 09:45:56;;;;;;;16.25;6.93;;;;;;;22.47;40.75;94213.81;6105546;23;20608;-92
2022/08/09 09:48:22;;;;;;;16.52;7.70;;;;;;;22.52;41.03;94220.50;6070056;23;20025;-90
2022/08/09 09:50:49;;;;;;;11.50;6.38;;;;;;;22.51;40.72;94221.78;6044235;23;20022;-88
2022/08/09 09:53:16;;;;;;;12.38;6.95;;;;;;;22.60;40.46;94215.16;6040672;23;20017;-90
2022/08/09 09:55:52;;;;;;;10.68;6.03;;;;;;;22.54;40.66;94209.69;6070371;23;20026;-90
2022/08/09 09:58:18;;;;;;;12.88;7.40;;;;;;;22.61;40.67;94211.88;6044834;23;20017;-92
2022/08/09 10:00:48;;;;;;;36.60;8.55;;;;;;;22.64;40.15;94216.34;6046725;23;20040;-91
2022/08/09 10:03:13;;;;;;;19.97;6.70;;;;;;;22.61;40.08;94220.16;6035090;23;20031;-93
2022/08/09 10:06:00;;;;;;;14.65;5.32;;;;;;;22.57;40.96;94212.16;6045372;23;20249;-93
2022/08/09 10:08:26;;;;;;;7.80;4.50;;;;;;;22.56;41.14;94216.19;6042085;23;20014;-94
2022/08/09 10:10:51;;;;;;;7.70;4.13;;;;;;;22.62;40.93;94212.63;6043378;23;20169;-92
2022/08/09 10:13:17;;;;;;;6.75;4.35;;;;;;;22.56;41.01;94216.19;6046663;23;20018;-91
2022/08/09 10:15:49;;;;;;;7.60;3.67;;;;;;;22.59;41.03;94197.88;6068838;23;20029;-91
2022/08/09 10:18:14;;;;;;;9.13;3.30;;;;;;;22.58;41.25;94218.44;6044433;23;20022;-92
2022/08/09 10:20:40;;;;;;;8.55;3.60;;;;;;;22.60;41.98;94212.41;6068055;23;20030;-91
2022/08/09 10:23:18;;;;;;;6.03;3.25;;;;;;;22.65;41.65;94206.09;6066766;23;20026;-91
2022/08/09 10:25:45;;;;;;;8.65;3.55;;;;;;;22.62;41.43;94207.88;6069974;23;20028;-93
2022/08/09 10:28:11;;;;;;;4.53;3.47;;;;;;;22.62;41.79;94201.59;6070990;23;20036;-94
2022/08/09 10:30:36;;;;;;;9.52;3.45;;;;;;;22.67;41.64;94211.81;6040737;23;20029;-93
2022/08/09 10:33:03;;;;;;;4.43;2.85;;;;;;;22.64;41.65;94216.34;6045964;23;20085;-92
2022/08/09 10:35:29;;;;;;;6.53;3.20;;;;;;;22.68;41.99;94202.28;6041479;23;20327;-93
2022/08/09 10:37:54;;;;;;;4.00;3.25;;;;;;;22.66;42.09;94210.34;6080496;23;20511;-94
2022/08/09 10:40:29;;;;;;;7.63;3.80;;;;;;;22.72;42.03;94216.53;6095455;23;20484;-94
2022/08/09 10:43:03;;;;;;;6.22;3.70;;;;;;;22.70;42.01;94213.53;6091683;23;20021;-93
2022/08/09 10:45:30;;;;;;;6.55;3.75;;;;;;;22.71;42.12;94198.50;6099406;23;20028;-94
2022/08/09 10:48:07;;;;;;;4.97;3.63;;;;;;;22.70;42.22;94205.28;6105688;23;20029;-93
2022/08/09 10:51:08;;;;;;;5.00;3.78;;;;;;;22.72;42.10;94209.00;6126674;23;20017;-94
2022/08/09 10:53:59;;;;;;;6.97;4.13;;;;;;;22.73;42.11;94201.47;6131159;23;20016;-94
2022/08/09 10:56:28;;;;;;;6.10;3.13;;;;;;;22.74;42.83;94208.47;6128457;23;20021;-93
2022/08/09 10:58:56;;;;;;;6.15;3.15;;;;;;;22.73;42.86;94216.00;6129880;23;20017;-94
2022/08/09 11:01:30;;;;;;;5.32;3.33;;;;;;;22.76;42.90;94205.94;6129380;23;20084;-94
2022/08/09 11:04:11;;;;;;;6.82;4.10;;;;;;;22.75;42.73;94207.94;6175245;23;20075;-94
2022/08/09 11:06:37;;;;;;;12.35;6.80;;;;;;;22.81;42.57;94207.91;6131326;23;20013;-93
2022/08/09 11:09:03;;;;;;;17.77;9.00;;;;;;;22.78;42.50;94204.19;6107537;23;20013;-94
2022/08/09 11:11:59;;;;;;;24.65;13.65;;;;;;;22.79;42.84;94200.16;6099653;23;20371;-94
2022/08/09 11:14:33;;;;;;;34.83;22.25;;;;;;;22.76;42.38;94195.66;6153975;23;20297;-94
2022/08/09 11:16:59;;;;;;;46.78;28.85;;;;;;;22.76;42.48;94200.41;6129605;23;20474;-94
2022/08/09 11:19:57;;;;;;;43.35;26.00;;;;;;;22.79;42.18;94193.91;6082931;23;20026;-93
2022/08/09 11:22:43;;;;;;;50.47;26.30;;;;;;;22.79;42.38;94193.91;6121399;23;20014;-93
2022/08/09 11:25:32;;;;;;;129.15;63.03;;;;;;;22.80;42.58;94196.13;6108754;23;20025;-92
2022/08/09 11:27:57;;;;;;;147.13;73.60;;;;;;;22.75;42.29;94199.66;6078206;23;20021;-89
2022/08/09 11:30:25;;;;;;;160.70;80.82;;;;;;;22.81;42.17;94177.59;6068265;23;20457;-89
2022/08/09 11:33:06;;;;;;;183.27;88.68;;;;;;;22.78;42.56;94190.41;6122487;23;20029;-92
2022/08/09 11:35:55;;;;;;;163.35;82.25;;;;;;;22.82;42.94;94196.34;6122934;23;20017;-91